Terminal Aerodrome Forecast
Issued by NWS Charleston, WV

Current Version | Previous Version | Graphics & Text | Print | Product List | Glossary On
Versions: 1 2 3 4 5 6 7 8 9 10 11 12 13 14 15 16 17 18 19 20 21 22 23 24 25 26 27 28 29 30 31 32
000
FTUS41 KRLX 300304 AAA
TAFCRW
TAF AMD
KCRW 300304Z 3003/3024 00000KT P6SM VCSH BKN050
     FM300600 VRB03KT 4SM BR BKN060
     FM300900 00000KT 1SM BR BKN001
     FM301300 00000KT 2SM BR BKN005
     FM301400 VRB03KT 4SM HZ BKN015
     FM301500 VRB03KT P6SM BKN035
     FM301700 VRB03KT P6SM VCTS BKN045CB=

USA.gov is the U.S. government's official web portal to all federal, state and local government web resources and services.